createdAt,value
2023-03-01T00:02:03.055Z,9.07
2023-03-01T00:04:29.848Z,9.20
2023-03-01T00:06:56.380Z,9.52
2023-03-01T00:09:23.075Z,9.98
2023-03-01T00:11:50.036Z,9.23
2023-03-01T00:14:19.424Z,10.40
2023-03-01T00:16:46.697Z,7.82
2023-03-01T00:19:19.399Z,8.65
2023-03-01T00:21:46.786Z,9.40
2023-03-01T00:24:13.402Z,8.80
2023-03-01T00:26:40.325Z,8.75
2023-03-01T00:29:07.507Z,9.45
2023-03-01T00:31:34.680Z,10.10
2023-03-01T00:34:03.884Z,10.02
2023-03-01T00:36:34.247Z,8.73
2023-03-01T00:39:01.144Z,9.05
2023-03-01T00:41:28.067Z,8.80
2023-03-01T00:43:55.308Z,8.90
2023-03-01T00:46:24.923Z,9.45
2023-03-01T00:48:51.760Z,9.73
2023-03-01T00:51:27.137Z,8.38
2023-03-01T00:53:56.121Z,9.23
2023-03-01T00:56:22.639Z,9.30
2023-03-01T00:58:49.380Z,9.55
2023-03-01T01:01:19.475Z,8.90
2023-03-01T01:03:47.071Z,9.55
2023-03-01T01:06:40.698Z,9.07
2023-03-01T01:09:08.290Z,8.90
2023-03-01T01:11:38.397Z,9.93
2023-03-01T01:14:05.252Z,9.73
2023-03-01T01:16:32.285Z,9.55
2023-03-01T01:18:59.166Z,10.23
2023-03-01T01:21:26.985Z,8.98
2023-03-01T01:23:54.142Z,8.93
2023-03-01T01:26:23.677Z,9.75
2023-03-01T01:28:51.007Z,10.18
2023-03-01T01:31:18.734Z,10.10
2023-03-01T01:33:45.335Z,9.88
2023-03-01T01:36:12.571Z,11.02
2023-03-01T01:38:40.260Z,9.13
2023-03-01T01:41:07.911Z,9.57
2023-03-01T01:43:40.177Z,10.07
2023-03-01T01:46:33.360Z,9.00
2023-03-01T01:49:04.699Z,9.85
2023-03-01T01:51:39.515Z,8.93
2023-03-01T01:54:19.068Z,9.73
2023-03-01T01:56:51.568Z,8.93
2023-03-01T01:59:18.171Z,8.77
2023-03-01T02:01:59.010Z,10.05
2023-03-01T02:04:26.543Z,10.13
2023-03-01T02:07:00.598Z,9.75
2023-03-01T02:09:27.907Z,9.65
2023-03-01T02:11:55.045Z,10.82
2023-03-01T02:14:21.806Z,9.95
2023-03-01T02:16:48.897Z,9.80
2023-03-01T02:19:36.856Z,10.40
2023-03-01T02:22:25.302Z,9.30
2023-03-01T02:25:02.385Z,9.48
2023-03-01T02:27:37.714Z,8.40
2023-03-01T02:30:04.720Z,9.25
2023-03-01T02:32:31.934Z,10.70
2023-03-01T02:34:59.038Z,9.27
2023-03-01T02:37:27.510Z,10.30
2023-03-01T02:40:00.602Z,10.57
2023-03-01T02:42:32.832Z,10.57
2023-03-01T02:44:59.468Z,9.65
2023-03-01T02:47:26.190Z,10.05
2023-03-01T02:49:52.851Z,9.48
2023-03-01T02:52:31.822Z,11.25
2023-03-01T02:55:09.634Z,9.93
2023-03-01T02:57:38.888Z,10.15
2023-03-01T03:00:09.800Z,9.82
2023-03-01T03:02:37.441Z,10.93
2023-03-01T03:05:18.015Z,10.38
2023-03-01T03:07:46.852Z,9.90
2023-03-01T03:10:16.823Z,10.48
2023-03-01T03:12:43.764Z,10.05
2023-03-01T03:15:13.880Z,10.77
2023-03-01T03:17:44.114Z,10.20
2023-03-01T03:20:20.116Z,10.32
2023-03-01T03:22:52.675Z,10.07
2023-03-01T03:25:20.305Z,10.90
2023-03-01T03:27:49.047Z,10.70
2023-03-01T03:30:18.223Z,11.15
2023-03-01T03:32:55.098Z,10.85
2023-03-01T03:35:31.177Z,10.90
2023-03-01T03:38:02.772Z,10.55
2023-03-01T03:43:02.207Z,8.73
2023-03-01T03:45:28.943Z,9.25
2023-03-01T03:47:55.477Z,9.85
2023-03-01T03:50:22.149Z,11.52
2023-03-01T03:52:48.727Z,10.18
2023-03-01T03:55:15.247Z,11.68
2023-03-01T03:57:42.625Z,11.77
2023-03-01T04:00:13.876Z,10.27
2023-03-01T04:02:41.935Z,11.18
2023-03-01T04:05:10.542Z,9.73
2023-03-01T04:07:38.902Z,10.23
2023-03-01T04:10:07.850Z,11.38
2023-03-01T04:12:35.787Z,8.90
2023-03-01T04:15:13.739Z,11.23
2023-03-01T04:17:46.051Z,11.32
2023-03-01T04:20:15.394Z,10.00
2023-03-01T04:22:41.944Z,9.15
2023-03-01T04:25:08.978Z,9.75
2023-03-01T04:27:36.095Z,10.23
2023-03-01T04:30:04.547Z,10.15
2023-03-01T04:32:31.129Z,10.05
2023-03-01T04:34:57.766Z,9.23
2023-03-01T04:37:25.088Z,10.80
2023-03-01T04:39:51.760Z,10.32
2023-03-01T04:42:19.081Z,9.80
2023-03-01T04:44:46.318Z,10.30
2023-03-01T04:47:13.724Z,10.93
2023-03-01T04:49:40.339Z,10.25
2023-03-01T04:52:06.957Z,9.82
2023-03-01T04:54:34.315Z,10.20
2023-03-01T04:57:01.898Z,10.65
2023-03-01T04:59:28.423Z,9.95
2023-03-01T05:01:56.850Z,9.85
2023-03-01T05:04:24.571Z,10.98
2023-03-01T05:06:51.205Z,10.27
2023-03-01T05:09:18.281Z,10.45
2023-03-01T05:11:44.913Z,10.18
2023-03-01T05:14:11.695Z,10.05
2023-03-01T05:16:38.446Z,10.57
2023-03-01T05:19:16.361Z,9.95
2023-03-01T05:22:04.636Z,9.05
2023-03-01T05:24:33.810Z,10.65
2023-03-01T05:27:01.181Z,9.70
2023-03-01T05:29:29.470Z,11.00
2023-03-01T05:31:59.348Z,11.48
2023-03-01T05:34:26.604Z,10.43
2023-03-01T05:36:54.615Z,10.15
2023-03-01T05:39:26.841Z,9.93
2023-03-01T05:41:55.008Z,10.85
2023-03-01T05:44:21.972Z,10.35
2023-03-01T05:46:48.934Z,10.35
2023-03-01T05:49:15.516Z,9.68
2023-03-01T05:51:43.614Z,11.48
2023-03-01T05:54:10.987Z,10.43
2023-03-01T05:56:38.160Z,11.70
2023-03-01T05:59:08.479Z,10.45
2023-03-01T06:01:35.733Z,10.73
2023-03-01T06:04:03.479Z,10.73
2023-03-01T06:06:31.145Z,11.82
2023-03-01T06:08:57.900Z,10.63
2023-03-01T06:11:24.579Z,10.95
2023-03-01T06:13:51.091Z,10.68
2023-03-01T06:16:17.780Z,10.30
2023-03-01T06:18:44.490Z,11.43
2023-03-01T06:21:11.049Z,11.27
2023-03-01T06:23:37.708Z,11.50
2023-03-01T06:26:09.871Z,11.48
2023-03-01T06:28:36.847Z,10.43
2023-03-01T06:31:04.119Z,11.02
2023-03-01T06:33:30.794Z,10.88
2023-03-01T06:35:57.687Z,9.82
2023-03-01T06:38:25.856Z,12.50
2023-03-01T06:40:55.231Z,12.27
2023-03-01T06:43:22.472Z,11.43
2023-03-01T06:45:49.104Z,11.63
2023-03-01T06:48:16.313Z,12.43
2023-03-01T06:50:43.029Z,11.43
2023-03-01T06:53:09.722Z,12.30
2023-03-01T06:55:36.380Z,11.02
2023-03-01T06:58:04.148Z,11.82
2023-03-01T07:00:31.250Z,11.98
2023-03-01T07:03:02.983Z,12.52
2023-03-01T07:05:30.656Z,11.77
2023-03-01T07:07:57.448Z,12.25
2023-03-01T07:10:24.277Z,12.20
2023-03-01T07:12:50.822Z,11.93
2023-03-01T07:15:17.605Z,11.52
2023-03-01T07:17:45.653Z,11.57
2023-03-01T07:20:12.730Z,12.40
2023-03-01T07:22:42.071Z,12.52
2023-03-01T07:25:09.305Z,11.80
2023-03-01T07:27:35.839Z,11.70
2023-03-01T07:30:02.686Z,12.65
2023-03-01T07:32:29.590Z,12.10
2023-03-01T07:34:56.175Z,12.55
2023-03-01T07:37:22.879Z,11.77
2023-03-01T07:39:49.563Z,12.88
2023-03-01T07:42:16.086Z,11.50
2023-03-01T07:44:42.776Z,12.75
2023-03-01T07:47:09.358Z,13.07
2023-03-01T07:49:36.079Z,12.88
2023-03-01T07:52:02.811Z,12.82
2023-03-01T07:54:29.418Z,12.07
2023-03-01T07:56:57.706Z,12.88
2023-03-01T07:59:30.029Z,12.38
2023-03-01T08:01:57.933Z,12.52
2023-03-01T08:04:25.949Z,12.15
2023-03-01T08:06:52.929Z,13.57
2023-03-01T08:09:19.600Z,11.70
2023-03-01T08:11:46.233Z,12.25
2023-03-01T08:14:13.000Z,13.02
2023-03-01T08:16:39.776Z,13.38
2023-03-01T08:19:08.378Z,12.93
2023-03-01T08:21:38.539Z,12.38
2023-03-01T08:24:07.148Z,12.02
2023-03-01T08:26:34.156Z,11.55
2023-03-01T08:29:01.583Z,14.98
2023-03-01T08:31:31.333Z,15.18
2023-03-01T08:34:00.958Z,12.63
2023-03-01T08:36:33.646Z,14.05
2023-03-01T08:39:00.427Z,14.32
2023-03-01T08:41:27.428Z,13.88
2023-03-01T08:43:59.594Z,13.90
2023-03-01T08:46:38.292Z,14.02
2023-03-01T08:49:10.143Z,12.25
2023-03-01T08:51:37.919Z,13.82
2023-03-01T08:54:12.338Z,13.52
2023-03-01T08:56:39.008Z,14.63
2023-03-01T08:59:05.843Z,13.73
2023-03-01T09:01:32.756Z,12.80
2023-03-01T09:03:59.731Z,14.32
2023-03-01T09:06:26.415Z,14.15
2023-03-01T09:08:53.096Z,13.60
2023-03-01T09:11:21.848Z,14.40
2023-03-01T09:13:49.184Z,14.75
2023-03-01T09:16:18.704Z,13.38
2023-03-01T09:18:46.245Z,12.93
2023-03-01T09:21:15.687Z,13.60
2023-03-01T09:23:46.652Z,15.07
2023-03-01T09:26:17.446Z,12.68
2023-03-01T09:28:45.405Z,13.98
2023-03-01T09:31:15.459Z,14.27
2023-03-01T09:33:43.281Z,13.30
2023-03-01T09:36:13.448Z,13.43
2023-03-01T09:38:40.129Z,15.52
2023-03-01T09:41:18.652Z,13.63
2023-03-01T09:43:47.551Z,13.75
2023-03-01T09:46:19.968Z,14.43
2023-03-01T09:49:20.182Z,14.10
2023-03-01T09:51:56.648Z,13.98
2023-03-01T09:54:23.544Z,13.38
2023-03-01T09:57:27.237Z,12.38
2023-03-01T10:00:05.535Z,15.18
2023-03-01T10:02:48.454Z,14.73
2023-03-01T10:05:41.187Z,13.73
2023-03-01T10:08:30.500Z,14.02
2023-03-01T10:10:57.299Z,13.90
2023-03-01T10:13:54.726Z,14.38
2023-03-01T10:16:32.501Z,14.15
2023-03-01T10:19:05.191Z,13.93
2023-03-01T10:21:39.505Z,14.30
2023-03-01T10:24:15.048Z,13.50
2023-03-01T10:26:49.771Z,14.35
2023-03-01T10:29:16.783Z,14.00
2023-03-01T10:32:01.593Z,14.25
2023-03-01T10:34:32.776Z,14.40
2023-03-01T10:37:10.867Z,14.27
2023-03-01T10:39:37.716Z,13.55
2023-03-01T10:42:07.149Z,14.38
2023-03-01T10:44:46.499Z,15.70
2023-03-01T10:47:14.784Z,15.75
2023-03-01T10:49:53.582Z,13.63
2023-03-01T10:52:24.024Z,14.30
2023-03-01T10:54:57.167Z,14.73
2023-03-01T10:57:49.841Z,16.15
2023-03-01T11:00:18.828Z,13.75
2023-03-01T11:02:49.207Z,14.23
2023-03-01T11:05:18.530Z,13.93
2023-03-01T11:08:04.458Z,15.48
2023-03-01T11:10:33.972Z,12.95
2023-03-01T11:13:21.970Z,14.60
2023-03-01T11:16:01.807Z,12.25
2023-03-01T11:18:45.823Z,14.63
2023-03-01T11:21:13.687Z,15.38
2023-03-01T11:23:42.044Z,14.90
2023-03-01T11:26:11.724Z,14.73
2023-03-01T11:28:42.361Z,14.95
2023-03-01T11:31:16.431Z,14.38
2023-03-01T11:33:51.632Z,14.07
2023-03-01T11:36:39.681Z,15.13
2023-03-01T11:39:34.276Z,14.07
2023-03-01T11:42:19.088Z,14.68
2023-03-01T11:44:48.998Z,13.73
2023-03-01T11:47:28.785Z,15.70
2023-03-01T11:50:32.884Z,15.15
2023-03-01T11:53:38.127Z,14.40
2023-03-01T11:56:04.733Z,15.10
2023-03-01T11:59:09.426Z,14.35
2023-03-01T12:02:08.043Z,13.65
2023-03-01T12:05:06.844Z,15.30
2023-03-01T12:07:55.274Z,14.40
2023-03-01T12:10:29.055Z,15.40
2023-03-01T12:13:24.659Z,15.23
2023-03-01T12:16:10.133Z,14.27
2023-03-01T12:18:45.708Z,16.92
2023-03-01T12:21:24.724Z,14.50
2023-03-01T12:24:07.893Z,14.23
2023-03-01T12:26:46.045Z,15.00
2023-03-01T12:29:18.777Z,14.98
2023-03-01T12:32:08.391Z,16.35
2023-03-01T12:35:04.792Z,13.32
2023-03-01T12:40:29.030Z,15.77
2023-03-01T12:43:09.216Z,14.85
2023-03-01T12:45:54.365Z,15.93
2023-03-01T12:48:43.986Z,15.88
2023-03-01T12:51:16.846Z,16.08
2023-03-01T12:53:48.434Z,15.90
2023-03-01T12:56:39.078Z,17.15
2023-03-01T12:59:23.785Z,16.25
2023-03-01T13:01:53.469Z,16.65
2023-03-01T13:05:15.670Z,14.88
2023-03-01T13:08:05.990Z,15.18
2023-03-01T13:10:37.884Z,17.63
2023-03-01T13:13:21.128Z,15.70
2023-03-01T13:15:52.160Z,16.27
2023-03-01T13:18:20.431Z,16.17
2023-03-01T13:20:49.377Z,16.70
2023-03-01T13:23:21.649Z,16.02
2023-03-01T13:26:12.437Z,16.23
2023-03-01T13:28:45.375Z,16.30
2023-03-01T13:31:18.116Z,17.08
2023-03-01T13:33:47.711Z,16.50
2023-03-01T13:36:38.326Z,17.52
2023-03-01T13:39:27.529Z,16.70
2023-03-01T13:41:57.140Z,16.63
2023-03-01T13:44:43.769Z,17.52
2023-03-01T13:47:11.187Z,16.63
2023-03-01T13:49:49.415Z,16.63
2023-03-01T13:52:41.488Z,17.38
2023-03-01T13:55:38.397Z,16.95
2023-03-01T13:58:44.709Z,16.58
2023-03-01T14:01:33.462Z,16.75
2023-03-01T14:04:02.054Z,16.00
2023-03-01T14:06:31.876Z,16.77
2023-03-01T14:09:20.176Z,16.27
2023-03-01T14:11:46.839Z,16.92
2023-03-01T14:14:40.122Z,16.88
2023-03-01T14:17:18.702Z,16.73
2023-03-01T14:19:48.047Z,16.38
2023-03-01T14:22:29.352Z,15.85
2023-03-01T14:25:01.459Z,16.48
2023-03-01T14:27:34.314Z,14.30
2023-03-01T14:30:03.988Z,15.68
2023-03-01T14:32:32.625Z,15.32
2023-03-01T14:35:00.766Z,16.83
2023-03-01T14:37:35.758Z,15.40
2023-03-01T14:40:05.081Z,15.00
2023-03-01T14:42:38.063Z,15.50
2023-03-01T14:45:05.879Z,16.35
2023-03-01T14:47:35.802Z,14.60
2023-03-01T14:50:30.706Z,14.40
2023-03-01T14:53:00.916Z,15.60
2023-03-01T14:55:35.936Z,15.50
2023-03-01T14:58:06.197Z,16.33
2023-03-01T15:00:35.086Z,14.90
2023-03-01T15:03:10.982Z,15.30
2023-03-01T15:05:38.047Z,15.50
2023-03-01T15:08:05.596Z,14.57
2023-03-01T15:10:37.812Z,15.30
2023-03-01T15:13:25.460Z,15.30
2023-03-01T15:16:04.255Z,15.43
2023-03-01T15:18:31.027Z,15.05
2023-03-01T15:21:07.941Z,15.30
2023-03-01T15:23:35.197Z,14.50
2023-03-01T15:26:01.867Z,15.45
2023-03-01T15:28:32.632Z,15.27
2023-03-01T15:31:23.729Z,15.18
2023-03-01T15:33:51.234Z,14.85
2023-03-01T15:36:32.094Z,13.55
2023-03-01T15:39:01.194Z,14.77
2023-03-01T15:41:31.867Z,14.77
2023-03-01T15:44:15.292Z,15.45
2023-03-01T15:46:47.758Z,14.25
2023-03-01T15:49:30.758Z,14.35
2023-03-01T15:51:57.434Z,15.07
2023-03-01T15:54:27.444Z,13.93
2023-03-01T15:56:54.172Z,14.65
2023-03-01T15:59:20.847Z,15.32
2023-03-01T16:01:49.461Z,15.27
2023-03-01T16:04:22.016Z,13.15
2023-03-01T16:06:56.783Z,14.65
2023-03-01T16:09:27.835Z,15.50
2023-03-01T16:11:55.073Z,15.45
2023-03-01T16:14:21.616Z,14.10
2023-03-01T16:16:49.257Z,14.50
2023-03-01T16:19:16.346Z,14.50
2023-03-01T16:21:44.752Z,13.93
2023-03-01T16:24:11.387Z,14.85
2023-03-01T16:26:38.781Z,14.88
2023-03-01T16:29:05.972Z,13.73
2023-03-01T16:31:33.549Z,13.95
2023-03-01T16:34:00.901Z,14.73
2023-03-01T16:36:29.447Z,14.68
2023-03-01T16:38:58.994Z,14.63
2023-03-01T16:41:25.860Z,15.32
2023-03-01T16:43:52.872Z,14.52
2023-03-01T16:46:29.132Z,15.43
2023-03-01T16:48:56.470Z,14.60
2023-03-01T16:51:24.128Z,14.52
2023-03-01T16:53:52.308Z,14.68
2023-03-01T16:56:19.862Z,14.73
2023-03-01T16:58:46.768Z,14.20
2023-03-01T17:01:16.909Z,14.07
2023-03-01T17:03:44.212Z,15.00
2023-03-01T17:06:15.223Z,15.30
2023-03-01T17:08:41.955Z,14.95
2023-03-01T17:11:17.435Z,15.00
2023-03-01T17:13:44.618Z,14.77
2023-03-01T17:16:17.414Z,14.18
2023-03-01T17:18:44.180Z,15.52
2023-03-01T17:21:11.658Z,14.50
2023-03-01T17:23:41.464Z,16.00
2023-03-01T17:26:08.663Z,15.60
2023-03-01T17:28:36.712Z,15.43
2023-03-01T17:31:05.229Z,15.30
2023-03-01T17:33:32.140Z,14.45
2023-03-01T17:35:59.987Z,15.07
2023-03-01T17:38:26.981Z,13.88
2023-03-01T17:40:53.683Z,14.45
2023-03-01T17:43:20.419Z,14.48
2023-03-01T17:45:52.466Z,15.35
2023-03-01T17:48:19.319Z,14.70
2023-03-01T17:50:47.245Z,14.88
2023-03-01T17:53:14.438Z,14.45
2023-03-01T17:55:42.857Z,14.95
2023-03-01T17:58:12.106Z,15.30
2023-03-01T18:00:39.267Z,14.82
2023-03-01T18:03:05.938Z,14.70
2023-03-01T18:05:34.242Z,14.10
2023-03-01T18:08:00.819Z,14.55
2023-03-01T18:10:27.561Z,15.02
2023-03-01T18:12:54.237Z,14.43
2023-03-01T18:15:21.629Z,15.55
2023-03-01T18:17:48.325Z,14.35
2023-03-01T18:20:15.581Z,15.57
2023-03-01T18:22:42.145Z,14.57
2023-03-01T18:25:09.174Z,15.20
2023-03-01T18:27:37.148Z,14.30
2023-03-01T18:30:07.878Z,14.65
2023-03-01T18:32:34.680Z,15.57
2023-03-01T18:35:01.468Z,15.60
2023-03-01T18:37:28.011Z,14.48
2023-03-01T18:39:54.809Z,14.52
2023-03-01T18:42:21.980Z,14.88
2023-03-01T18:44:49.051Z,14.77
2023-03-01T18:47:17.017Z,14.98
2023-03-01T18:49:44.375Z,14.73
2023-03-01T18:52:11.440Z,16.05
2023-03-01T18:54:38.244Z,15.18
2023-03-01T18:57:05.297Z,15.25
2023-03-01T18:59:32.206Z,13.70
2023-03-01T19:01:58.853Z,14.82
2023-03-01T19:04:26.966Z,14.38
2023-03-01T19:06:54.031Z,14.80
2023-03-01T19:09:20.994Z,14.65
2023-03-01T19:11:47.676Z,14.32
2023-03-01T19:14:14.476Z,14.60
2023-03-01T19:16:41.287Z,15.02
2023-03-01T19:19:10.212Z,15.27
2023-03-01T19:21:37.447Z,15.23
2023-03-01T19:24:04.589Z,14.65
2023-03-01T19:26:33.172Z,13.05
2023-03-01T19:29:00.150Z,14.02
2023-03-01T19:31:28.924Z,15.00
2023-03-01T19:34:09.983Z,14.52
2023-03-01T19:36:37.983Z,14.40
2023-03-01T19:39:06.373Z,14.65
2023-03-01T19:41:33.676Z,13.65
2023-03-01T19:44:04.650Z,15.77
2023-03-01T19:46:32.857Z,15.32
2023-03-01T19:49:01.053Z,14.25
2023-03-01T19:51:27.797Z,14.25
2023-03-01T19:53:54.977Z,14.15
2023-03-01T19:56:22.469Z,14.73
2023-03-01T19:58:50.586Z,14.65
2023-03-01T20:01:19.681Z,13.52
2023-03-01T20:03:47.192Z,13.75
2023-03-01T20:06:17.125Z,15.13
2023-03-01T20:08:44.766Z,14.27
2023-03-01T20:11:13.360Z,14.82
2023-03-01T20:13:40.287Z,13.82
2023-03-01T20:16:07.941Z,15.43
2023-03-01T20:18:35.079Z,14.52
2023-03-01T20:21:02.785Z,12.98
2023-03-01T20:23:30.590Z,14.75
2023-03-01T20:26:06.168Z,13.88
2023-03-01T20:28:34.454Z,13.65
2023-03-01T20:31:05.969Z,15.30
2023-03-01T20:33:33.067Z,14.10
2023-03-01T20:35:59.855Z,15.38
2023-03-01T20:38:27.282Z,14.40
2023-03-01T20:40:58.671Z,12.65
2023-03-01T20:43:25.365Z,13.55
2023-03-01T20:45:51.979Z,13.75
2023-03-01T20:48:18.553Z,13.75
2023-03-01T20:50:45.187Z,14.20
2023-03-01T20:53:11.738Z,12.27
2023-03-01T20:55:38.330Z,14.27
2023-03-01T20:58:04.927Z,13.68
2023-03-01T21:00:31.654Z,13.82
2023-03-01T21:02:58.203Z,14.57
2023-03-01T21:05:24.744Z,14.75
2023-03-01T21:07:51.643Z,14.30
2023-03-01T21:10:18.326Z,12.43
2023-03-01T21:12:44.996Z,14.05
2023-03-01T21:15:23.480Z,13.98
2023-03-01T21:17:54.910Z,14.98
2023-03-01T21:20:21.556Z,14.07
2023-03-01T21:22:48.066Z,14.15
2023-03-01T21:25:14.825Z,11.95
2023-03-01T21:27:41.533Z,13.73
2023-03-01T21:30:08.815Z,15.70
2023-03-01T21:32:35.427Z,13.18
2023-03-01T21:35:02.132Z,13.63
2023-03-01T21:37:28.651Z,14.38
2023-03-01T21:39:55.525Z,14.73
2023-03-01T21:42:22.187Z,14.05
2023-03-01T21:44:49.176Z,15.35
2023-03-01T21:47:15.765Z,14.02
2023-03-01T21:49:42.331Z,15.35
2023-03-01T21:52:09.144Z,15.02
2023-03-01T21:54:35.718Z,14.55
2023-03-01T21:57:02.320Z,14.77
2023-03-01T21:59:29.093Z,15.30
2023-03-01T22:01:55.717Z,15.02
2023-03-01T22:04:24.844Z,14.57
2023-03-01T22:06:54.296Z,13.82
2023-03-01T22:09:24.422Z,14.25
2023-03-01T22:12:02.559Z,14.43
2023-03-01T22:14:31.155Z,14.30
2023-03-01T22:16:58.202Z,13.90
2023-03-01T22:19:24.933Z,14.23
2023-03-01T22:21:53.014Z,13.50
2023-03-01T22:24:22.405Z,14.27
2023-03-01T22:26:50.715Z,15.20
2023-03-01T22:29:20.983Z,14.75
2023-03-01T22:31:48.274Z,14.75
2023-03-01T22:34:17.061Z,14.48
2023-03-01T22:36:44.699Z,16.35
2023-03-01T22:39:13.153Z,14.40
2023-03-01T22:41:44.002Z,15.55
2023-03-01T22:44:15.512Z,14.48
2023-03-01T22:46:43.535Z,13.13
2023-03-01T22:49:10.570Z,13.68
2023-03-01T22:51:39.253Z,13.23
2023-03-01T22:54:07.335Z,13.52
2023-03-01T22:56:36.598Z,14.45
2023-03-01T22:59:08.753Z,13.45
2023-03-01T23:01:36.411Z,13.80
2023-03-01T23:04:03.398Z,14.13
2023-03-01T23:06:31.484Z,13.73
2023-03-01T23:09:00.995Z,13.60
2023-03-01T23:11:27.995Z,15.40
2023-03-01T23:13:54.815Z,14.07
2023-03-01T23:16:26.153Z,14.00
2023-03-01T23:18:55.094Z,14.70
2023-03-01T23:21:22.170Z,13.52
2023-03-01T23:23:49.853Z,14.25
2023-03-01T23:26:17.999Z,13.32
2023-03-01T23:28:45.166Z,14.45
2023-03-01T23:31:14.432Z,12.88
2023-03-01T23:33:44.425Z,12.90
2023-03-01T23:36:24.310Z,13.32
2023-03-01T23:38:53.281Z,12.38
2023-03-01T23:41:22.974Z,12.18
2023-03-01T23:43:52.316Z,13.07
2023-03-01T23:46:20.348Z,13.65
2023-03-01T23:48:47.763Z,12.60
2023-03-01T23:51:15.303Z,13.57
2023-03-01T23:53:54.017Z,13.18
2023-03-01T23:56:33.193Z,13.00
2023-03-01T23:59:05.451Z,13.82
